Time;durP1;ratioP1;P1;durP2;ratioP2;P2;SDS_P1;SDS_P2;PMS_P1;PMS_P2;Temp;Humidity;BMP_temperature;BMP_pressure;BME280_temperature;BME280_humidity;BME280_pressure;Samples;Min_cycle;Max_cycle;Signal;HPM_P1;HPM_P2
2024/01/19 00:02:12;;;;;;;;;90.33;71.00;;;;;4.52;100.00;97867.41;6272814;20;3655547;-46
2024/01/19 00:04:43;;;;;;;;;92.33;74.00;;;;;4.78;100.00;97870.13;6303795;20;3685739;-45
2024/01/19 00:07:13;;;;;;;;;92.33;68.67;;;;;4.84;100.00;97869.72;6271064;20;3673201;-45
2024/01/19 00:09:41;;;;;;;;;80.00;63.67;;;;;5.14;100.00;97871.25;6274746;20;3617997;-46
2024/01/19 00:12:11;;;;;;;;;89.00;72.33;;;;;4.83;100.00;97857.38;6274269;20;3658759;-46
2024/01/19 00:14:41;;;;;;;;;76.00;52.00;;;;;4.86;100.00;97858.97;6270360;20;2879478;-46
2024/01/19 00:17:11;;;;;;;;;84.33;65.33;;;;;5.02;100.00;97865.78;6304030;20;3646614;-47
2024/01/19 00:19:41;;;;;;;;;80.00;63.67;;;;;5.33;100.00;97871.69;6305341;20;2867151;-45
2024/01/19 00:22:11;;;;;;;;;76.67;56.00;;;;;5.53;100.00;97880.06;6305633;20;3651332;-45
2024/01/19 00:24:40;;;;;;;;;79.33;56.33;;;;;5.44;100.00;97869.13;6302604;20;3657695;-44
2024/01/19 00:27:10;;;;;;;;;81.33;61.33;;;;;5.20;100.00;97870.81;6305151;20;3633606;-46
2024/01/19 00:29:39;;;;;;;;;54.50;43.00;;;;;5.48;100.00;97873.28;6303493;20;2857996;-45
2024/01/19 00:32:10;;;;;;;;;72.67;56.33;;;;;5.55;100.00;97875.50;6273366;20;3612757;-45
2024/01/19 00:34:39;;;;;;;;;74.33;56.33;;;;;5.38;100.00;97882.84;6301708;20;3645068;-46
2024/01/19 00:37:09;;;;;;;;;68.67;54.67;;;;;5.45;100.00;97893.91;6304573;20;2874344;-45
2024/01/19 00:39:38;;;;;;;;;63.33;49.67;;;;;5.59;100.00;97892.97;6304592;20;3622138;-46
2024/01/19 00:42:08;;;;;;;;;70.00;53.67;;;;;5.60;100.00;97892.00;6305123;20;3637894;-46
2024/01/19 00:44:37;;;;;;;;;67.00;53.67;;;;;5.70;100.00;97901.03;6303154;20;3609623;-45
2024/01/19 00:47:07;;;;;;;;;62.00;48.33;;;;;5.76;100.00;97911.25;6305042;20;2867032;-47
2024/01/19 00:49:37;;;;;;;;;64.67;53.00;;;;;5.62;100.00;97919.38;6305670;20;2881655;-47
2024/01/19 00:52:06;;;;;;;;;70.33;54.67;;;;;5.83;100.00;97931.19;6305278;20;2880569;-45
2024/01/19 00:54:36;;;;;;;;;64.67;52.33;;;;;5.72;100.00;97933.75;6303220;20;2875491;-47
2024/01/19 00:57:05;;;;;;;;;61.33;49.33;;;;;5.76;100.00;97945.88;6305012;20;2860712;-48
2024/01/19 00:59:34;;;;;;;;;62.00;51.00;;;;;5.68;100.00;97948.22;6303310;20;2872246;-48
2024/01/19 01:02:03;;;;;;;;;66.67;50.67;;;;;5.85;100.00;97941.72;6272317;20;3632577;-45
2024/01/19 01:04:33;;;;;;;;;62.33;50.00;;;;;5.80;100.00;97947.38;6302159;20;2875350;-48
2024/01/19 01:07:02;;;;;;;;;57.50;48.50;;;;;5.69;100.00;97949.94;6303574;20;2847231;-50
2024/01/19 01:09:32;;;;;;;;;62.33;51.33;;;;;5.67;100.00;97955.34;6271876;20;2869128;-46
2024/01/19 01:12:02;;;;;;;;;66.00;52.00;;;;;5.55;100.00;97950.88;6304725;20;2876429;-49
2024/01/19 01:14:32;;;;;;;;;68.00;52.33;;;;;5.46;100.00;97947.03;6302396;20;3620168;-46
2024/01/19 01:17:01;;;;;;;;;70.67;53.00;;;;;5.67;100.00;97947.38;6302308;20;2875413;-49
2024/01/19 01:19:34;;;;;;;;;69.00;55.67;;;;;5.65;100.00;97959.94;6302078;20;3611747;-46
2024/01/19 01:22:05;;;;;;;;;63.00;47.33;;;;;5.90;100.00;97983.06;6305655;20;2875399;-48
2024/01/19 01:24:35;;;;;;;;;70.67;55.67;;;;;5.91;100.00;97982.09;6306008;20;3632579;-47
2024/01/19 01:27:05;;;;;;;;;70.00;55.33;;;;;5.99;100.00;97991.41;6306314;20;3628467;-47
2024/01/19 01:29:34;;;;;;;;;74.00;56.50;;;;;5.90;100.00;97983.06;6308097;20;3510786;-45
2024/01/19 01:32:04;;;;;;;;;75.33;56.67;;;;;5.95;100.00;97974.78;6308868;20;3627384;-45
2024/01/19 01:34:34;;;;;;;;;68.00;51.33;;;;;5.93;100.00;97972.22;6307899;20;3626341;-45
2024/01/19 01:37:04;;;;;;;;;66.33;51.67;;;;;5.86;100.00;97986.88;6308733;20;2878565;-46
2024/01/19 01:39:33;;;;;;;;;69.67;54.67;;;;;5.88;100.00;97992.97;6309476;20;3641035;-47
2024/01/19 01:42:04;;;;;;;;;62.67;52.33;;;;;5.81;100.00;97994.34;6306489;20;2873258;-46
2024/01/19 01:44:33;;;;;;;;;68.33;51.33;;;;;5.67;100.00;97997.13;6306732;20;2870271;-48
2024/01/19 01:47:03;;;;;;;;;70.67;52.00;;;;;5.72;100.00;98000.31;6308360;20;3633627;-47
2024/01/19 01:49:33;;;;;;;;;61.67;47.67;;;;;5.65;100.00;98004.34;6309337;20;3627771;-49
2024/01/19 01:52:04;;;;;;;;;60.67;44.33;;;;;5.49;100.00;98008.06;6308346;20;2881633;-50
2024/01/19 01:54:33;;;;;;;;;61.33;47.33;;;;;5.39;100.00;98006.13;6306052;20;2878573;-46
2024/01/19 01:57:03;;;;;;;;;61.33;47.00;;;;;5.41;100.00;98029.00;6304175;20;2870174;-49
2024/01/19 01:59:33;;;;;;;;;56.00;44.00;;;;;5.33;100.00;98047.31;6305414;20;2863906;-50
2024/01/19 02:02:02;;;;;;;;;52.00;42.50;;;;;4.86;100.00;98045.97;6273665;20;2861815;-46
2024/01/19 02:04:33;;;;;;;;;55.33;43.33;;;;;4.79;100.00;98037.53;6272058;20;2874272;-51
2024/01/19 02:07:02;;;;;;;;;48.33;41.00;;;;;4.63;100.00;98042.09;6307154;20;2874263;-46
2024/01/19 02:09:32;;;;;;;;;51.50;41.00;;;;;4.51;100.00;98057.03;6308860;20;2870107;-48
2024/01/19 02:12:03;;;;;;;;;54.67;42.33;;;;;4.53;100.00;98068.44;6276106;20;2859728;-47
2024/01/19 02:14:32;;;;;;;;;50.00;43.50;;;;;4.37;100.00;98072.97;6305217;20;2837921;-49
2024/01/19 02:17:03;;;;;;;;;60.33;44.33;;;;;4.13;100.00;98078.91;6275997;20;3618204;-46
2024/01/19 02:19:35;;;;;;;;;52.00;42.50;;;;;4.12;100.00;98077.16;6308813;20;2852390;-48
2024/01/19 02:22:04;;;;;;;;;50.50;42.00;;;;;4.03;100.00;98064.47;6275212;20;2852413;-49
2024/01/19 02:24:35;;;;;;;;;54.50;43.00;;;;;3.82;100.00;98056.00;6272784;20;2869069;-48
2024/01/19 02:27:04;;;;;;;;;43.50;40.00;;;;;3.97;100.00;98062.16;6275037;20;2860823;-54
2024/01/19 02:29:33;;;;;;;;;58.00;41.00;;;;;3.83;100.00;98065.66;6274909;20;2881559;-46
2024/01/19 02:32:03;;;;;;;;;55.33;41.33;;;;;3.82;100.00;98071.94;6276361;20;3605502;-49
2024/01/19 02:34:32;;;;;;;;;61.67;44.67;;;;;3.88;100.00;98073.34;6306865;20;2881576;-48
2024/01/19 02:37:02;;;;;;;;;58.00;42.67;;;;;3.69;100.00;98074.47;6308860;20;2879536;-45
2024/01/19 02:39:31;;;;;;;;;57.67;44.33;;;;;3.59;100.00;98075.94;6304744;20;2873255;-46
2024/01/19 02:42:00;;;;;;;;;48.00;41.00;;;;;3.44;100.00;98076.84;6308718;20;2877397;-49
2024/01/19 02:44:29;;;;;;;;;55.00;46.00;;;;;3.56;100.00;98088.56;6274142;20;2870189;-46
2024/01/19 02:46:58;;;;;;;;;56.50;46.50;;;;;3.49;100.00;98093.34;6275725;20;2856562;-47
2024/01/19 02:49:27;;;;;;;;;63.67;49.00;;;;;3.51;100.00;98104.72;6277180;20;2869035;-48
2024/01/19 02:51:56;;;;;;;;;59.50;45.00;;;;;3.53;100.00;98108.16;6305271;20;2869051;-49
2024/01/19 02:54:24;;;;;;;;;50.00;41.50;;;;;3.66;100.00;98119.75;6270582;20;2478712;-49
2024/01/19 02:56:53;;;;;;;;;51.00;43.00;;;;;3.67;100.00;98123.28;6275126;20;2860733;-46
2024/01/19 02:59:23;;;;;;;;;59.00;44.33;;;;;3.58;100.00;98127.31;6274291;20;2880665;-46
2024/01/19 03:01:53;;;;;;;;;62.33;48.67;;;;;3.76;100.00;98128.03;6306358;20;2894074;-46
2024/01/19 03:04:22;;;;;;;;;60.00;49.00;;;;;3.48;100.00;98127.00;6305600;20;2843168;-47
2024/01/19 03:06:50;;;;;;;;;49.00;44.00;;;;;3.55;100.00;98131.94;6273815;20;2495077;-47
2024/01/19 03:09:19;;;;;;;;;60.00;46.00;;;;;3.65;100.00;98139.25;6277046;20;2815941;-47
2024/01/19 03:11:47;;;;;;;;;52.00;44.00;;;;;3.55;100.00;98148.69;6275983;20;2851345;-46
2024/01/19 03:14:16;;;;;;;;;48.00;39.00;;;;;3.76;100.00;98153.72;6274916;20;2869498;-45
2024/01/19 03:16:45;;;;;;;;;62.00;47.50;;;;;3.58;100.00;98158.28;6275788;20;2854570;-49
2024/01/19 03:19:16;;;;;;;;;65.00;48.67;;;;;3.44;100.00;98159.09;6276650;20;2881594;-47
2024/01/19 03:21:45;;;;;;;;;61.00;46.50;;;;;3.46;100.00;98159.88;6305151;20;2863793;-45
2024/01/19 03:24:14;;;;;;;;;50.33;44.33;;;;;3.49;100.00;98170.28;6272326;20;3604449;-47
2024/01/19 03:26:43;;;;;;;;;48.00;35.67;;;;;3.44;100.00;98169.69;6276796;20;2874267;-46
2024/01/19 03:29:12;;;;;;;;;57.00;43.50;;;;;3.21;100.00;98171.88;6305183;20;2859802;-44
2024/01/19 03:31:40;;;;;;;;;48.00;42.00;;;;;3.36;100.00;98180.75;6272289;20;2496203;-45
2024/01/19 03:34:09;;;;;;;;;47.00;38.50;;;;;3.38;100.00;98184.16;6274898;20;2853439;-46
2024/01/19 03:36:38;;;;;;;;;50.50;43.50;;;;;3.37;100.00;98192.19;6273531;20;2861763;-47
2024/01/19 03:39:07;;;;;;;;;56.00;41.50;;;;;3.45;100.00;98205.88;6273399;20;2493098;-45
2024/01/19 03:41:36;;;;;;;;;54.33;44.00;;;;;3.43;100.00;98202.50;6274062;20;2855564;-45
2024/01/19 03:44:06;;;;;;;;;51.00;41.67;;;;;3.41;100.00;98212.31;6303105;20;2877491;-47
2024/01/19 03:46:34;;;;;;;;;46.00;39.00;;;;;3.24;100.00;98205.31;6306821;20;2853376;-45
2024/01/19 03:49:03;;;;;;;;;45.50;40.00;;;;;3.33;100.00;98206.59;6275458;20;2838975;-44
2024/01/19 03:51:33;;;;;;;;;54.67;44.33;;;;;3.43;100.00;98219.25;6273833;20;2862850;-45
2024/01/19 03:54:01;;;;;;;;;41.50;40.00;;;;;3.24;100.00;98213.28;6303106;20;2852357;-44
2024/01/19 03:56:30;;;;;;;;;52.50;40.50;;;;;3.36;100.00;98222.34;6273462;20;2862802;-44
2024/01/19 03:59:00;;;;;;;;;50.67;41.33;;;;;3.13;100.00;98243.00;6272588;20;2882677;-44
2024/01/19 04:01:29;;;;;;;;;57.00;45.00;;;;;3.28;100.00;98252.78;6304167;20;2864871;-43
2024/01/19 04:03:57;;;;;;;;;57.50;41.50;;;;;3.22;100.00;98247.84;6270993;20;2877387;-45
2024/01/19 04:06:27;;;;;;;;;50.00;38.67;;;;;3.28;100.00;98252.78;6275175;20;3637860;-44
2024/01/19 04:08:57;;;;;;;;;44.33;32.00;;;;;3.35;100.00;98247.16;6305799;20;2874443;-42
2024/01/19 04:11:26;;;;;;;;;47.67;37.67;;;;;3.38;100.00;98262.91;6306044;20;3631513;-44
2024/01/19 04:13:56;;;;;;;;;51.67;41.33;;;;;3.24;100.00;98261.88;6303341;20;2870099;-43
2024/01/19 04:16:24;;;;;;;;;54.00;42.00;;;;;3.42;100.00;98270.63;6302720;20;2487815;-46
2024/01/19 04:18:52;;;;;;;;;55.50;45.50;;;;;3.04;100.00;98267.41;6274391;20;2846225;-43
2024/01/19 04:21:21;;;;;;;;;63.00;47.00;;;;;3.04;100.00;98275.34;6273992;20;2872181;-44
2024/01/19 04:23:51;;;;;;;;;45.33;39.00;;;;;2.98;100.00;98300.41;6271808;20;2863381;-45
2024/01/19 04:26:20;;;;;;;;;57.00;45.50;;;;;3.22;100.00;98294.72;6304460;20;2857727;-43
2024/01/19 04:28:49;;;;;;;;;52.00;42.50;;;;;2.90;100.00;98299.06;6275127;20;2850292;-45
2024/01/19 04:31:18;;;;;;;;;41.67;30.67;;;;;3.15;100.00;98296.84;6272785;20;2871163;-45
2024/01/19 04:33:48;;;;;;;;;59.00;42.33;;;;;3.22;100.00;98290.25;6303796;20;2874449;-45
2024/01/19 04:36:18;;;;;;;;;41.33;37.33;;;;;3.22;100.00;98278.81;6304485;20;3617957;-44
2024/01/19 04:38:51;;;;;;;;;41.33;34.67;;;;;3.05;100.00;98277.03;6307612;20;2868087;-45
2024/01/19 04:41:20;;;;;;;;;38.50;34.50;;;;;3.33;100.00;98308.25;6304840;20;2841123;-44
2024/01/19 04:43:49;;;;;;;;;37.50;32.00;;;;;3.08;100.00;98324.59;6274105;20;2853475;-43
2024/01/19 04:46:18;;;;;;;;;35.00;28.00;;;;;3.37;100.00;98327.50;6274482;20;2562857;-43
2024/01/19 04:48:45;;;;;;;;;27.00;18.00;;;;;3.33;100.00;98339.22;6302707;20;2500704;-44
2024/01/19 04:51:15;;;;;;;;;36.00;27.00;;;;;3.38;100.00;98343.34;6275652;20;2857683;-43
2024/01/19 04:53:43;;;;;;;;;38.50;31.00;;;;;3.40;100.00;98352.09;6269205;20;2859741;-43
2024/01/19 04:56:11;;;;;;;;;37.50;23.50;;;;;3.41;100.00;98353.78;6271729;20;2500271;-44
2024/01/19 04:58:40;;;;;;;;;26.33;21.33;;;;;3.24;100.00;98367.97;6276669;20;3573260;-44
2024/01/19 05:01:09;;;;;;;;;22.33;19.33;;;;;3.33;100.00;98373.72;6279829;20;3569147;-44
2024/01/19 05:03:37;;;;;;;;;27.00;23.50;;;;;3.34;100.00;98378.06;6275893;20;2496140;-44
2024/01/19 05:06:05;;;;;;;;;46.50;39.00;;;;;3.19;100.00;98375.31;6280650;20;2862791;-45
2024/01/19 05:08:34;;;;;;;;;38.00;33.00;;;;;2.98;100.00;98376.44;6276648;20;2859708;-45
2024/01/19 05:11:03;;;;;;;;;39.00;31.00;;;;;3.23;100.00;98382.16;6278512;20;2868016;-44
2024/01/19 05:13:32;;;;;;;;;40.00;33.50;;;;;2.99;100.00;98388.75;6276480;20;2859173;-44
2024/01/19 05:16:00;;;;;;;;;26.00;25.00;;;;;2.82;100.00;98390.47;6281774;20;2500330;-45
2024/01/19 05:18:29;;;;;;;;;36.50;26.50;;;;;2.89;100.00;98387.50;6280311;20;2871155;-45
2024/01/19 05:20:56;;;;;;;;;27.50;27.50;;;;;3.05;100.00;98399.00;6274193;20;2500337;-44
2024/01/19 05:23:25;;;;;;;;;34.00;32.50;;;;;2.76;100.00;98419.91;6278183;20;2858647;-43
2024/01/19 05:25:54;;;;;;;;;24.33;22.00;;;;;2.90;100.00;98419.25;6279319;20;3575312;-44
2024/01/19 05:28:23;;;;;;;;;34.50;32.00;;;;;2.88;100.00;98436.16;6278502;20;2858684;-43
2024/01/19 05:30:51;;;;;;;;;24.00;21.00;;;;;3.10;100.00;98444.72;6277150;20;2498214;-47
2024/01/19 05:33:19;;;;;;;;;35.00;30.50;;;;;2.58;100.00;98457.91;6279887;20;2849480;-44
2024/01/19 05:35:47;;;;;;;;;26.00;20.50;;;;;2.61;100.00;98471.91;6278220;20;2820195;-45
2024/01/19 05:38:15;;;;;;;;;34.00;24.00;;;;;2.56;100.00;98486.31;6277149;20;2500381;-44
2024/01/19 05:40:44;;;;;;;;;37.50;28.50;;;;;2.95;100.00;98488.78;6277753;20;2858621;-44
2024/01/19 05:43:14;;;;;;;;;44.67;35.67;;;;;2.91;100.00;98481.06;6274918;20;3625403;-44
2024/01/19 05:45:42;;;;;;;;;35.50;29.50;;;;;2.95;100.00;98490.56;6308732;20;2500337;-44
2024/01/19 05:48:10;;;;;;;;;41.00;37.00;;;;;2.95;100.00;98496.75;6278118;20;2859690;-45
2024/01/19 05:50:40;;;;;;;;;48.00;36.33;;;;;2.74;100.00;98501.31;6277372;20;3632916;-43
2024/01/19 05:53:09;;;;;;;;;35.00;27.00;;;;;2.69;100.00;98498.03;6308733;20;2862913;-46
2024/01/19 05:55:37;;;;;;;;;31.00;26.00;;;;;3.01;100.00;98501.72;6277450;20;2500262;-45
2024/01/19 05:58:06;;;;;;;;;30.50;27.00;;;;;3.10;100.00;98497.75;6304817;20;2852425;-45
2024/01/19 06:00:35;;;;;;;;;26.00;25.00;;;;;2.95;100.00;98509.13;6275445;20;2798228;-44
2024/01/19 06:03:03;;;;;;;;;36.50;30.50;;;;;3.06;100.00;98509.47;6306465;20;2857611;-44
2024/01/19 06:05:35;;;;;;;;;34.00;27.00;;;;;2.90;100.00;98519.09;6277265;20;2849249;-45
2024/01/19 06:08:04;;;;;;;;;33.50;26.50;;;;;3.10;100.00;98531.38;6270313;20;2500491;-45
2024/01/19 06:10:32;;;;;;;;;41.50;32.50;;;;;3.19;100.00;98526.47;6278755;20;2876340;-45
2024/01/19 06:13:00;;;;;;;;;30.00;25.50;;;;;3.24;100.00;98529.75;6276729;20;2500364;-44
2024/01/19 06:15:29;;;;;;;;;31.00;26.50;;;;;3.10;100.00;98534.03;6276433;20;2842976;-43
2024/01/19 06:17:58;;;;;;;;;37.50;27.00;;;;;3.08;100.00;98534.97;6274431;20;2860165;-44
2024/01/19 06:20:27;;;;;;;;;32.00;25.50;;;;;3.08;100.00;98542.03;6276734;20;2846129;-43
2024/01/19 06:22:56;;;;;;;;;35.50;27.00;;;;;3.25;100.00;98541.22;6276415;20;2862803;-44
2024/01/19 06:25:24;;;;;;;;;33.50;27.50;;;;;2.88;100.00;98544.84;6277457;20;2852380;-44
2024/01/19 06:27:57;;;;;;;;;34.00;30.50;;;;;3.13;100.00;98555.06;6272950;20;2500384;-43
2024/01/19 06:30:25;;;;;;;;;25.50;25.50;;;;;3.04;100.00;98553.75;6276844;20;2842998;-44
2024/01/19 06:32:53;;;;;;;;;31.00;24.50;;;;;3.04;100.00;98559.91;6276457;20;2500295;-47
2024/01/19 06:35:22;;;;;;;;;52.50;42.00;;;;;2.90;100.00;98558.84;6277935;20;2861734;-44
2024/01/19 06:37:51;;;;;;;;;52.50;41.50;;;;;2.67;100.00;98576.72;6275388;20;2864996;-45
2024/01/19 06:40:21;;;;;;;;;45.33;40.00;;;;;2.90;100.00;98580.06;6274645;20;2860804;-45
2024/01/19 06:42:50;;;;;;;;;42.33;37.00;;;;;2.55;100.00;98583.44;6305945;20;2875286;-45
2024/01/19 06:45:20;;;;;;;;;42.67;35.67;;;;;2.67;100.00;98583.81;6308117;20;3616905;-44
2024/01/19 06:47:50;;;;;;;;;40.33;36.33;;;;;2.54;100.00;98594.13;6308550;20;2860829;-44
2024/01/19 06:50:19;;;;;;;;;63.33;46.00;;;;;2.75;100.00;98598.44;6310141;20;3628360;-45
2024/01/19 06:52:49;;;;;;;;;54.00;45.67;;;;;2.73;100.00;98604.72;6306805;20;2867001;-46
2024/01/19 06:55:19;;;;;;;;;53.67;42.33;;;;;2.64;100.00;98600.72;6306705;20;2864034;-45
2024/01/19 06:57:48;;;;;;;;;46.00;38.67;;;;;2.67;100.00;98615.63;6307125;20;3607663;-45
2024/01/19 07:00:18;;;;;;;;;59.00;37.33;;;;;2.66;100.00;98614.78;6306469;20;3651850;-43
2024/01/19 07:02:48;;;;;;;;;47.00;39.00;;;;;2.82;100.00;98626.38;6308053;20;2874334;-44
2024/01/19 07:05:17;;;;;;;;;50.33;37.33;;;;;2.68;100.00;98634.09;6307210;20;3626283;-46
2024/01/19 07:07:47;;;;;;;;;42.00;39.00;;;;;2.40;100.00;98630.06;6298659;20;3621152;-45
2024/01/19 07:10:16;;;;;;;;;53.00;43.00;;;;;2.63;100.00;98630.78;6305895;20;2728539;-45
2024/01/19 07:12:45;;;;;;;;;58.00;44.50;;;;;2.60;100.00;98636.25;6303639;20;2866996;-45
2024/01/19 07:15:13;;;;;;;;;50.00;43.00;;;;;2.57;100.00;98636.38;6269878;20;2495321;-45
2024/01/19 07:17:41;;;;;;;;;49.00;40.00;;;;;2.68;100.00;98650.00;6274475;20;2844038;-43
2024/01/19 07:20:10;;;;;;;;;56.00;39.00;;;;;2.74;100.00;98657.69;6269937;20;2491939;-48
2024/01/19 07:22:40;;;;;;;;;48.33;39.33;;;;;2.52;100.00;98664.88;6274884;20;2877356;-47
2024/01/19 07:25:09;;;;;;;;;45.50;40.00;;;;;2.91;100.00;98662.19;6303434;20;2862782;-46
2024/01/19 07:27:40;;;;;;;;;52.67;40.00;;;;;2.97;100.00;98671.63;6276044;20;2885754;-45
2024/01/19 07:30:10;;;;;;;;;45.00;38.00;;;;;2.70;100.00;98674.63;6306455;20;3621071;-44
2024/01/19 07:32:39;;;;;;;;;50.00;41.00;;;;;2.82;100.00;98678.53;6305598;20;2863910;-46
2024/01/19 07:35:29;;;;;;;;;49.33;42.00;;;;;2.90;100.00;98680.78;6304352;20;2861721;-45
2024/01/19 07:37:59;;;;;;;;;58.33;40.33;;;;;2.69;100.00;98680.03;6306737;20;2877574;-45
2024/01/19 07:40:28;;;;;;;;;55.33;41.67;;;;;2.84;100.00;98682.84;6304551;20;2872229;-45
2024/01/19 07:42:57;;;;;;;;;45.50;38.50;;;;;3.10;100.00;98699.28;6304029;20;2869027;-45
2024/01/19 07:45:27;;;;;;;;;47.00;37.33;;;;;2.93;100.00;98689.47;6274095;20;3627374;-44
2024/01/19 07:47:56;;;;;;;;;36.33;25.67;;;;;2.91;100.00;98693.13;6307639;20;2864889;-44
2024/01/19 07:50:26;;;;;;;;;75.00;55.33;;;;;2.98;100.00;98690.13;6305619;20;3634649;-44
2024/01/19 07:52:55;;;;;;;;;53.00;43.00;;;;;2.99;100.00;98697.16;6304205;20;2845085;-45
2024/01/19 07:55:25;;;;;;;;;74.67;53.33;;;;;2.89;100.00;98695.00;6275610;20;3637798;-45
2024/01/19 07:57:53;;;;;;;;;47.00;39.00;;;;;2.92;100.00;98705.44;6303941;20;2857565;-45
2024/01/19 08:00:22;;;;;;;;;41.00;39.00;;;;;3.01;100.00;98707.69;6274725;20;2750391;-46
2024/01/19 08:02:51;;;;;;;;;54.67;39.33;;;;;2.82;100.00;98716.50;6310258;20;3609721;-44
2024/01/19 08:05:21;;;;;;;;;52.67;40.33;;;;;3.23;100.00;98729.59;6305174;20;3613921;-44
2024/01/19 08:07:52;;;;;;;;;65.67;48.00;;;;;2.87;100.00;98732.19;6305094;20;2881678;-44
2024/01/19 08:10:20;;;;;;;;;58.00;47.00;;;;;2.84;100.00;98738.50;6303303;20;2489902;-44
2024/01/19 08:12:50;;;;;;;;;59.67;44.33;;;;;2.74;100.00;98737.19;6273783;20;2866939;-45
2024/01/19 08:15:19;;;;;;;;;62.50;48.00;;;;;2.74;100.00;98741.59;6305507;20;2859659;-43
2024/01/19 08:17:48;;;;;;;;;67.00;51.67;;;;;2.66;100.00;98741.97;6273912;20;2879552;-45
2024/01/19 08:20:17;;;;;;;;;60.00;49.00;;;;;2.96;100.00;98749.47;6306816;20;2866084;-45
2024/01/19 08:22:46;;;;;;;;;62.00;48.00;;;;;2.56;100.00;98759.22;6273574;20;2863956;-45
2024/01/19 08:25:15;;;;;;;;;58.00;41.00;;;;;2.33;100.00;98769.00;6272106;20;2857581;-44
2024/01/19 08:27:44;;;;;;;;;51.67;44.00;;;;;2.39;100.00;98766.06;6273066;20;2865982;-45
2024/01/19 08:30:15;;;;;;;;;43.50;39.00;;;;;2.55;100.00;98778.66;6304767;20;2852791;-44
2024/01/19 08:32:44;;;;;;;;;50.00;41.00;;;;;2.23;100.00;98772.09;6280445;20;2862823;-44
2024/01/19 08:35:13;;;;;;;;;62.33;46.33;;;;;2.13;100.00;98782.22;6281227;20;2879500;-44
2024/01/19 08:37:43;;;;;;;;;60.67;46.33;;;;;2.17;100.00;98771.44;6313186;20;2866997;-44
2024/01/19 08:40:12;;;;;;;;;57.50;46.00;;;;;2.28;100.00;98772.78;6311605;20;2497176;-44
2024/01/19 08:42:41;;;;;;;;;57.00;45.00;;;;;2.42;100.00;98786.28;6281878;20;2861746;-44
2024/01/19 08:45:10;;;;;;;;;57.00;46.50;;;;;2.23;100.00;98778.25;6311944;20;2859658;-44
2024/01/19 08:47:39;;;;;;;;;61.50;47.50;;;;;1.86;100.00;98794.81;6281182;20;2845168;-44
2024/01/19 08:50:08;;;;;;;;;56.00;46.50;;;;;2.11;100.00;98799.97;6281704;20;2861848;-43
2024/01/19 08:52:37;;;;;;;;;52.50;40.00;;;;;1.95;100.00;98808.53;6281364;20;2872293;-44
2024/01/19 08:55:07;;;;;;;;;55.33;45.67;;;;;1.97;100.00;98821.69;6282920;20;2875398;-45
2024/01/19 08:57:36;;;;;;;;;51.50;42.50;;;;;2.27;100.00;98822.25;6313824;20;2867013;-45
2024/01/19 09:00:07;;;;;;;;;61.33;46.00;;;;;1.80;100.00;98832.97;6287883;20;2876382;-44
2024/01/19 09:02:36;;;;;;;;;61.50;47.50;;;;;1.84;100.00;98837.22;6318270;20;2873314;-45
2024/01/19 09:05:15;;;;;;;;;74.33;51.33;;;;;1.98;100.00;98844.63;6284991;20;2880641;-44
2024/01/19 09:07:44;;;;;;;;;60.50;47.00;;;;;1.93;100.00;98842.16;6318447;20;2850272;-47
2024/01/19 09:10:13;;;;;;;;;63.00;48.00;;;;;2.31;100.00;98852.94;6286794;20;2859646;-47
2024/01/19 09:12:42;;;;;;;;;62.50;49.50;;;;;2.20;100.00;98856.03;6287167;20;2869139;-48
2024/01/19 09:15:11;;;;;;;;;64.00;50.00;;;;;2.27;100.00;98856.66;6283449;20;2881509;-47
2024/01/19 09:17:40;;;;;;;;;65.50;49.00;;;;;2.17;100.00;98861.47;6288261;20;2873186;-48
2024/01/19 09:20:08;;;;;;;;;59.00;46.00;;;;;2.17;100.00;98865.91;6285305;20;2508636;-49
2024/01/19 09:22:37;;;;;;;;;67.00;49.00;;;;;1.96;100.00;98857.06;6287519;20;2871176;-49
2024/01/19 09:25:06;;;;;;;;;61.00;49.00;;;;;2.24;100.00;98859.44;6282329;20;2854690;-49
2024/01/19 09:27:34;;;;;;;;;60.50;48.50;;;;;2.08;100.00;98860.97;6282801;20;2499241;-48
2024/01/19 09:30:05;;;;;;;;;61.50;46.00;;;;;2.05;100.00;98864.59;6279421;20;2864874;-49
2024/01/19 09:32:34;;;;;;;;;47.50;38.50;;;;;2.11;100.00;98871.47;6280046;20;2853395;-47
2024/01/19 09:35:04;;;;;;;;;58.00;42.00;;;;;2.15;100.00;98883.63;6283833;20;2871112;-48
2024/01/19 09:37:33;;;;;;;;;58.50;47.00;;;;;2.08;100.00;98871.56;6285181;20;2858668;-48
2024/01/19 09:40:02;;;;;;;;;60.00;46.00;;;;;2.28;100.00;98871.63;6286299;20;2861850;-48
2024/01/19 09:42:34;;;;;;;;;59.50;43.50;;;;;2.05;100.00;98872.53;6280401;20;2861758;-51
2024/01/19 09:45:07;;;;;;;;;61.00;45.00;;;;;1.97;100.00;98866.69;6276042;20;2869595;-47
2024/01/19 09:48:05;;;;;;;;;55.00;46.50;;;;;2.13;100.00;98874.88;6276620;20;2493096;-47
2024/01/19 09:50:36;;;;;;;;;63.00;46.50;;;;;2.28;100.00;98886.66;6275345;20;2492057;-49
2024/01/19 09:53:27;;;;;;;;;60.50;47.00;;;;;2.04;100.00;98894.66;6277837;20;2863896;-47
2024/01/19 09:55:57;;;;;;;;;56.33;44.67;;;;;2.25;100.00;98895.59;6276900;20;2858643;-46
2024/01/19 09:58:27;;;;;;;;;62.00;44.50;;;;;1.81;100.00;98908.78;6305111;20;2490939;-48
2024/01/19 10:00:57;;;;;;;;;60.33;46.33;;;;;2.22;100.00;98911.59;6280951;20;2872184;-46
2024/01/19 10:03:28;;;;;;;;;57.67;44.00;;;;;2.35;100.00;98904.88;6307170;20;2868069;-47
2024/01/19 10:05:58;;;;;;;;;84.33;61.67;;;;;1.72;100.00;98911.81;6305285;20;3661837;-47
2024/01/19 10:08:28;;;;;;;;;91.00;68.33;;;;;2.07;100.00;98901.63;6308100;20;3636749;-48
2024/01/19 10:11:05;;;;;;;;;69.67;53.00;;;;;1.87;100.00;98911.22;6306905;20;3629565;-48
2024/01/19 10:13:34;;;;;;;;;64.00;47.50;;;;;1.77;100.00;98901.91;6306731;20;2862853;-49
2024/01/19 10:16:05;;;;;;;;;61.00;49.00;;;;;2.13;100.00;98901.38;6276667;20;2861752;-48
2024/01/19 10:18:34;;;;;;;;;70.33;54.33;;;;;1.93;100.00;98895.09;6280533;20;2876384;-47
2024/01/19 10:21:05;;;;;;;;;69.33;50.67;;;;;1.56;100.00;98895.66;6307543;20;2873200;-47
2024/01/19 10:23:35;;;;;;;;;70.33;55.33;;;;;1.87;100.00;98905.03;6307353;20;3626295;-47
2024/01/19 10:26:14;;;;;;;;;68.00;49.33;;;;;1.86;100.00;98904.19;6308414;20;2884714;-47
2024/01/19 10:28:43;;;;;;;;;63.00;47.00;;;;;2.33;100.00;98906.72;6308525;20;2857619;-46
2024/01/19 10:31:21;;;;;;;;;74.33;53.00;;;;;2.45;100.00;98912.44;6279128;20;3647226;-47
2024/01/19 10:33:53;;;;;;;;;85.00;61.33;;;;;2.05;100.00;98914.06;6306644;20;3666909;-44
2024/01/19 10:36:24;;;;;;;;;92.00;67.67;;;;;2.44;100.00;98901.00;6275020;20;3651390;-49
2024/01/19 10:38:54;;;;;;;;;74.33;54.33;;;;;2.42;100.00;98895.78;6309736;20;2925815;-47
2024/01/19 10:41:25;;;;;;;;;86.00;63.33;;;;;2.16;100.00;98911.88;6309882;20;3637778;-47
2024/01/19 10:44:11;;;;;;;;;75.67;58.33;;;;;2.75;100.00;98911.19;6305850;20;2873313;-48
2024/01/19 10:46:42;;;;;;;;;80.33;59.67;;;;;1.73;100.00;98918.81;6301527;20;3648255;-46
2024/01/19 10:49:18;;;;;;;;;85.00;61.00;;;;;1.84;100.00;98935.13;6305243;20;3649261;-47
2024/01/19 10:51:49;;;;;;;;;81.33;59.00;;;;;1.73;100.00;98939.97;6304863;20;3649446;-46
2024/01/19 10:54:24;;;;;;;;;76.00;58.33;;;;;1.82;100.00;98952.88;6300015;20;2882686;-48
2024/01/19 10:57:05;;;;;;;;;70.50;54.50;;;;;2.49;100.00;98964.41;6302622;20;2881529;-47
2024/01/19 10:59:35;;;;;;;;;82.33;63.33;;;;;2.41;100.00;98976.16;6273832;20;3633574;-49
2024/01/19 11:02:05;;;;;;;;;84.00;63.67;;;;;2.32;100.00;98984.47;6303725;20;3640863;-47
2024/01/19 11:04:35;;;;;;;;;90.00;65.33;;;;;2.22;100.00;98980.47;6304495;20;3651370;-47
2024/01/19 11:07:07;;;;;;;;;90.00;66.67;;;;;2.81;100.00;98979.84;6301622;20;3646113;-47
2024/01/19 11:09:40;;;;;;;;;79.67;58.00;;;;;2.72;100.00;98982.03;6302448;20;3643133;-49
2024/01/19 11:12:15;;;;;;;;;59.67;46.67;;;;;2.62;100.00;98994.78;6301371;20;2866007;-50
2024/01/19 11:14:46;;;;;;;;;66.00;47.50;;;;;2.78;100.00;98998.50;6302288;20;2871284;-48